createdAt,value
2017-08-24T00:00:51.705Z,17.10
2017-08-24T00:03:19.288Z,16.53
2017-08-24T00:05:46.847Z,17.60
2017-08-24T00:08:27.978Z,19.33
2017-08-24T00:15:58.587Z,17.27
2017-08-24T00:18:26.670Z,15.67
2017-08-24T00:20:54.374Z,14.90
2017-08-24T00:23:22.354Z,15.30
2017-08-24T00:25:52.552Z,16.30
2017-08-24T00:28:20.291Z,14.85
2017-08-24T00:30:50.205Z,14.80
2017-08-24T00:33:19.138Z,17.17
2017-08-24T00:35:52.805Z,14.80
2017-08-24T00:38:26.256Z,16.85
2017-08-24T00:40:56.289Z,14.60
2017-08-24T00:43:29.538Z,17.37
2017-08-24T00:45:57.921Z,15.63
2017-08-24T00:48:28.149Z,16.65
2017-08-24T00:50:58.861Z,15.60
2017-08-24T00:53:34.475Z,15.63
2017-08-24T00:56:02.356Z,18.83
2017-08-24T00:58:31.316Z,17.57
2017-08-24T01:00:59.085Z,17.67
2017-08-24T01:03:32.768Z,16.12
2017-08-24T01:06:03.065Z,16.23
2017-08-24T01:08:31.808Z,16.52
2017-08-24T01:11:01.043Z,16.67
2017-08-24T01:13:33.877Z,18.27
2017-08-24T01:16:02.742Z,17.50
2017-08-24T01:18:31.542Z,19.43
2017-08-24T01:21:01.568Z,21.10
2017-08-24T01:23:31.549Z,17.33
2017-08-24T01:26:03.194Z,19.27
2017-08-24T01:28:32.425Z,15.15
2017-08-24T01:31:00.832Z,17.90
2017-08-24T01:33:28.484Z,19.95
2017-08-24T01:35:57.095Z,18.50
2017-08-24T01:38:32.249Z,18.52
2017-08-24T01:40:59.865Z,17.40
2017-08-24T01:43:27.603Z,18.60
2017-08-24T01:48:46.011Z,18.53
2017-08-24T01:51:19.389Z,17.33
2017-08-24T01:53:49.002Z,20.65
2017-08-24T01:56:19.962Z,21.30
2017-08-24T01:58:47.951Z,24.67
2017-08-24T02:01:18.246Z,21.13
2017-08-24T02:03:46.066Z,21.73
2017-08-24T02:06:28.617Z,29.96
2017-08-24T02:11:37.042Z,23.20
2017-08-24T02:14:06.219Z,22.20
2017-08-24T02:16:33.974Z,22.05
2017-08-24T02:19:03.289Z,29.23
2017-08-24T02:21:31.964Z,20.07
2017-08-24T02:24:06.696Z,18.63
2017-08-24T02:26:35.675Z,20.37
2017-08-24T02:29:15.602Z,19.47
2017-08-24T02:31:47.872Z,22.87
2017-08-24T02:34:20.053Z,19.62
2017-08-24T02:36:47.690Z,20.27
2017-08-24T02:39:15.553Z,29.23
2017-08-24T02:41:43.369Z,19.27
2017-08-24T02:44:11.080Z,27.57
2017-08-24T02:46:38.740Z,20.10
2017-08-24T02:49:06.635Z,21.27
2017-08-24T02:51:34.364Z,22.20
2017-08-24T02:54:02.072Z,20.97
2017-08-24T02:56:30.020Z,18.87
2017-08-24T02:58:58.901Z,21.53
2017-08-24T03:01:29.103Z,28.47
2017-08-24T03:03:59.038Z,26.00
2017-08-24T03:06:26.875Z,27.40
2017-08-24T03:08:54.596Z,28.40
2017-08-24T03:11:22.360Z,34.90
2017-08-24T03:13:50.375Z,24.53
2017-08-24T03:16:18.335Z,26.20
2017-08-24T03:18:46.107Z,24.60
2017-08-24T03:21:15.612Z,22.37
2017-08-24T03:23:45.911Z,21.23
2017-08-24T03:26:25.231Z,19.90
2017-08-24T03:33:18.406Z,20.63
2017-08-24T03:35:50.340Z,23.70
2017-08-24T03:38:20.703Z,22.10
2017-08-24T03:40:48.624Z,23.30
2017-08-24T03:43:18.110Z,21.73
2017-08-24T03:45:45.835Z,25.10
2017-08-24T03:48:18.777Z,18.80
2017-08-24T03:50:48.312Z,26.87
2017-08-24T03:53:17.142Z,22.50
2017-08-24T04:04:29.780Z,27.87
2017-08-24T04:06:57.335Z,19.47
2017-08-24T04:09:24.878Z,21.10
2017-08-24T04:11:52.485Z,17.48
2017-08-24T04:14:20.117Z,19.27
2017-08-24T04:16:47.722Z,22.13
2017-08-24T04:19:15.600Z,21.02
2017-08-24T04:21:43.168Z,19.80
2017-08-24T04:24:10.710Z,27.43
2017-08-24T04:26:38.332Z,19.80
2017-08-24T04:29:05.924Z,18.80
2017-08-24T04:31:33.485Z,17.53
2017-08-24T04:34:01.788Z,17.83
2017-08-24T04:36:29.350Z,17.00
2017-08-24T04:38:57.217Z,20.47
2017-08-24T04:41:24.793Z,18.27
2017-08-24T04:43:52.342Z,19.17
2017-08-24T04:46:19.888Z,18.75
2017-08-24T04:48:47.535Z,30.33
2017-08-24T04:51:15.660Z,18.57
2017-08-24T04:53:43.261Z,31.47
2017-08-24T04:56:10.823Z,23.97
2017-08-24T04:58:38.361Z,17.53
2017-08-24T05:01:05.900Z,23.63
2017-08-24T05:03:33.481Z,22.25
2017-08-24T05:06:01.016Z,20.80
2017-08-24T05:08:28.565Z,20.47
2017-08-24T05:10:56.170Z,21.63
2017-08-24T05:13:23.717Z,23.40
2017-08-24T05:15:51.603Z,20.33
2017-08-24T05:18:19.209Z,26.30
2017-08-24T05:20:46.751Z,30.00
2017-08-24T05:23:15.506Z,25.08
2017-08-24T05:25:43.076Z,26.67
2017-08-24T05:28:10.627Z,28.03
2017-08-24T05:30:38.177Z,16.30
2017-08-24T05:33:05.937Z,22.07
2017-08-24T05:35:34.114Z,20.25
2017-08-24T05:38:01.668Z,22.60
2017-08-24T05:40:29.238Z,21.60
2017-08-24T05:42:56.786Z,12.43
2017-08-24T05:45:24.374Z,13.17
2017-08-24T05:47:51.949Z,11.10
2017-08-24T05:50:19.492Z,10.02
2017-08-24T05:52:47.037Z,10.93
2017-08-24T05:55:16.379Z,10.67
2017-08-24T05:57:43.916Z,11.23
2017-08-24T06:00:11.461Z,10.80
2017-08-24T06:02:39.028Z,9.33
2017-08-24T06:05:06.561Z,9.30
2017-08-24T06:07:34.180Z,11.00
2017-08-24T06:10:01.825Z,10.90
2017-08-24T06:12:29.413Z,10.03
2017-08-24T06:14:56.952Z,9.93
2017-08-24T06:17:24.554Z,26.67
2017-08-24T06:19:52.104Z,10.00
2017-08-24T06:22:19.649Z,9.20
2017-08-24T06:24:48.186Z,13.40
2017-08-24T06:27:17.164Z,8.82
2017-08-24T06:29:44.709Z,13.73
2017-08-24T06:32:12.456Z,10.60
2017-08-24T06:37:22.196Z,8.48
2017-08-24T06:39:49.736Z,10.30
2017-08-24T06:42:17.273Z,8.70
2017-08-24T06:44:44.893Z,12.37
2017-08-24T06:47:12.436Z,13.43
2017-08-24T06:49:39.972Z,11.17
2017-08-24T06:52:07.547Z,8.25
2017-08-24T06:54:35.092Z,5.07
2017-08-24T06:57:02.626Z,7.03
2017-08-24T06:59:30.208Z,12.47
2017-08-24T07:01:57.751Z,5.83
2017-08-24T07:04:25.369Z,5.80
2017-08-24T07:06:52.954Z,7.20
2017-08-24T07:09:20.493Z,6.32
2017-08-24T07:11:48.806Z,8.10
2017-08-24T07:14:16.445Z,5.53
2017-08-24T07:16:43.978Z,8.67
2017-08-24T07:19:11.509Z,5.85
2017-08-24T07:21:39.096Z,4.47
2017-08-24T07:24:06.637Z,6.27
2017-08-24T07:26:34.781Z,8.33
2017-08-24T07:29:02.389Z,6.10
2017-08-24T07:31:29.925Z,6.00
2017-08-24T07:33:57.503Z,6.70
2017-08-24T07:36:28.326Z,6.70
2017-08-24T07:38:56.120Z,12.63
2017-08-24T07:41:23.658Z,4.67
2017-08-24T07:43:51.241Z,6.80
2017-08-24T07:46:18.789Z,5.33
2017-08-24T07:48:46.370Z,4.50
2017-08-24T07:51:15.532Z,7.97
2017-08-24T07:53:43.608Z,9.87
2017-08-24T07:56:11.351Z,5.00
2017-08-24T07:58:39.014Z,5.00
2017-08-24T08:01:06.554Z,6.12
2017-08-24T08:03:34.123Z,13.83
2017-08-24T08:06:01.754Z,5.97
2017-08-24T08:08:29.357Z,8.53
2017-08-24T08:10:57.719Z,7.47
2017-08-24T08:13:25.341Z,9.63
2017-08-24T08:15:53.156Z,5.43
2017-08-24T08:18:20.696Z,6.03
2017-08-24T08:20:48.349Z,11.17
2017-08-24T08:23:16.525Z,8.32
2017-08-24T08:25:44.222Z,7.23
2017-08-24T08:28:11.849Z,7.80
2017-08-24T08:30:39.389Z,9.33
2017-08-24T08:33:06.925Z,6.30
2017-08-24T08:35:34.538Z,9.05
2017-08-24T08:38:02.086Z,9.57
2017-08-24T08:40:30.205Z,7.10
2017-08-24T08:42:57.781Z,7.20
2017-08-24T08:45:25.341Z,5.00
2017-08-24T08:47:52.918Z,5.30
2017-08-24T08:50:20.546Z,5.53
2017-08-24T08:52:48.125Z,9.50
2017-08-24T08:55:16.513Z,7.18
2017-08-24T08:57:44.080Z,5.87
2017-08-24T09:00:11.716Z,4.62
2017-08-24T09:02:39.285Z,3.90
2017-08-24T09:05:06.849Z,5.83
2017-08-24T09:07:34.397Z,4.03
2017-08-24T09:10:01.937Z,4.97
2017-08-24T09:12:29.605Z,5.55
2017-08-24T09:14:57.214Z,8.50
2017-08-24T09:17:24.857Z,19.90
2017-08-24T09:19:52.452Z,4.30
2017-08-24T09:22:20.056Z,4.28
2017-08-24T09:24:47.668Z,4.20
2017-08-24T09:27:15.815Z,6.53
2017-08-24T09:29:43.392Z,5.10
2017-08-24T09:32:11.028Z,5.60
2017-08-24T09:34:38.787Z,6.67
2017-08-24T09:37:06.338Z,4.10
2017-08-24T09:39:33.874Z,4.23
2017-08-24T09:42:01.977Z,3.60
2017-08-24T09:44:29.655Z,3.77
2017-08-24T09:46:57.219Z,3.93
2017-08-24T09:49:24.803Z,4.00
2017-08-24T09:51:53.339Z,4.17
2017-08-24T09:54:21.032Z,4.70
2017-08-24T09:56:50.130Z,4.10
2017-08-24T09:59:17.689Z,5.13
2017-08-24T10:01:45.509Z,10.13
2017-08-24T10:04:24.418Z,4.50
2017-08-24T10:11:31.210Z,4.70
2017-08-24T10:13:58.765Z,6.80
2017-08-24T10:16:26.318Z,5.00
2017-08-24T10:18:54.002Z,5.17
2017-08-24T10:21:21.552Z,6.40
2017-08-24T10:23:49.101Z,5.27
2017-08-24T10:26:16.818Z,13.03
2017-08-24T10:28:44.455Z,10.60
2017-08-24T10:31:12.340Z,7.17
2017-08-24T10:33:39.890Z,8.00
2017-08-24T10:36:07.421Z,8.70
2017-08-24T10:38:34.957Z,6.20
2017-08-24T10:41:02.557Z,6.30
2017-08-24T10:43:30.292Z,11.63
2017-08-24T10:45:57.823Z,6.77
2017-08-24T10:48:25.458Z,13.93
2017-08-24T10:50:53.014Z,10.33
2017-08-24T10:53:20.581Z,6.62
2017-08-24T10:55:48.150Z,6.33
2017-08-24T10:58:16.480Z,6.57
2017-08-24T11:00:44.141Z,10.70
2017-08-24T11:03:11.761Z,12.97
2017-08-24T11:05:39.309Z,10.90
2017-08-24T11:08:06.857Z,11.43
2017-08-24T11:10:34.433Z,8.27
2017-08-24T11:13:02.013Z,8.63
2017-08-24T11:15:29.573Z,9.53
2017-08-24T11:17:57.322Z,14.00
2017-08-24T11:20:24.870Z,7.78
2017-08-24T11:22:52.435Z,9.97
2017-08-24T11:25:20.127Z,7.03
2017-08-24T11:27:47.768Z,7.90
2017-08-24T11:30:16.485Z,8.32
2017-08-24T11:32:45.004Z,8.10
2017-08-24T11:35:12.601Z,8.70
2017-08-24T11:37:40.142Z,7.70
2017-08-24T11:40:07.696Z,8.50
2017-08-24T11:42:35.329Z,11.70
2017-08-24T11:45:03.635Z,11.00
2017-08-24T11:47:31.317Z,9.10
2017-08-24T11:49:58.933Z,8.00
2017-08-24T11:52:26.482Z,11.90
2017-08-24T11:54:54.146Z,8.23
2017-08-24T11:57:21.753Z,8.27
2017-08-24T11:59:49.334Z,11.70
2017-08-24T12:02:16.921Z,9.97
2017-08-24T12:04:44.460Z,8.17
2017-08-24T12:07:13.704Z,15.20
2017-08-24T12:09:41.881Z,11.47
2017-08-24T12:12:09.518Z,6.73
2017-08-24T12:14:37.061Z,12.63
2017-08-24T12:17:04.717Z,7.93
2017-08-24T12:19:32.343Z,9.95
2017-08-24T12:21:59.988Z,9.83
2017-08-24T12:24:27.667Z,7.53
2017-08-24T12:26:55.322Z,7.30
2017-08-24T12:29:22.864Z,7.20
2017-08-24T12:31:51.177Z,6.80
2017-08-24T12:34:18.733Z,11.50
2017-08-24T12:36:46.781Z,10.03
2017-08-24T12:39:26.093Z,7.25
2017-08-24T12:44:30.081Z,11.13
2017-08-24T12:46:58.301Z,6.80
2017-08-24T12:49:25.849Z,11.93
2017-08-24T12:51:53.886Z,10.27
2017-08-24T12:54:21.457Z,8.00
2017-08-24T12:56:49.066Z,10.93
2017-08-24T12:59:16.669Z,6.70
2017-08-24T13:01:44.204Z,7.40
2017-08-24T13:04:11.795Z,9.60
2017-08-24T13:06:39.442Z,7.40
2017-08-24T13:09:07.054Z,7.10
2017-08-24T13:11:34.698Z,10.10
2017-08-24T13:14:03.105Z,12.10
2017-08-24T13:16:30.690Z,11.68
2017-08-24T13:18:58.253Z,7.07
2017-08-24T13:21:25.880Z,8.30
2017-08-24T13:23:53.493Z,6.90
2017-08-24T13:26:21.108Z,6.62
2017-08-24T13:28:48.752Z,8.00
2017-08-24T13:31:17.673Z,6.87
2017-08-24T13:33:45.305Z,6.80
2017-08-24T13:36:15.453Z,9.05
2017-08-24T13:38:43.086Z,9.80
2017-08-24T13:41:10.692Z,10.40
2017-08-24T13:43:38.323Z,9.37
2017-08-24T13:46:05.885Z,8.10
2017-08-24T13:48:34.021Z,7.57
2017-08-24T13:51:01.725Z,6.97
2017-08-24T13:53:29.314Z,8.47
2017-08-24T13:55:56.926Z,7.33
2017-08-24T13:58:24.569Z,7.10
2017-08-24T14:00:52.364Z,26.30
2017-08-24T14:03:19.965Z,6.70
2017-08-24T14:05:47.620Z,8.23
2017-08-24T14:08:16.452Z,6.57
2017-08-24T14:10:43.992Z,16.33
2017-08-24T14:13:11.584Z,7.00
2017-08-24T14:15:39.805Z,9.90
2017-08-24T14:18:07.355Z,11.53
2017-08-24T14:20:37.226Z,7.00
2017-08-24T14:23:04.793Z,10.50
2017-08-24T14:25:32.346Z,7.23
2017-08-24T14:27:59.929Z,10.07
2017-08-24T14:30:27.787Z,7.30
2017-08-24T14:32:55.330Z,7.00
2017-08-24T14:35:22.933Z,8.40
2017-08-24T14:37:50.481Z,7.70
2017-08-24T14:40:18.037Z,15.50
2017-08-24T14:42:45.634Z,9.37
2017-08-24T14:45:26.616Z,8.80
2017-08-24T14:50:29.591Z,7.27
2017-08-24T14:52:57.137Z,13.03
2017-08-24T14:55:24.745Z,12.52
2017-08-24T14:57:52.350Z,7.60
2017-08-24T15:00:19.905Z,9.38
2017-08-24T15:02:48.218Z,12.52
2017-08-24T15:05:16.653Z,8.77
2017-08-24T15:07:44.357Z,7.13
2017-08-24T15:10:11.972Z,9.60
2017-08-24T15:12:39.646Z,9.13
2017-08-24T15:15:07.285Z,7.27
2017-08-24T15:17:34.923Z,8.07
2017-08-24T15:20:02.530Z,8.98
2017-08-24T15:22:30.091Z,9.30
2017-08-24T15:24:57.663Z,10.73
2017-08-24T15:27:26.018Z,7.72
2017-08-24T15:29:53.574Z,12.33
2017-08-24T15:32:21.143Z,10.30
2017-08-24T15:34:48.702Z,6.73
2017-08-24T15:37:16.414Z,6.07
2017-08-24T15:39:43.974Z,8.30
2017-08-24T15:42:11.651Z,7.97
2017-08-24T15:44:39.219Z,10.30
2017-08-24T15:47:06.760Z,8.30
2017-08-24T15:49:35.269Z,6.63
2017-08-24T15:52:03.148Z,12.03
2017-08-24T15:54:30.684Z,9.30
2017-08-24T15:56:58.261Z,9.93
2017-08-24T15:59:25.800Z,12.43
2017-08-24T16:01:54.000Z,19.53
2017-08-24T16:04:22.594Z,11.50
2017-08-24T16:06:50.141Z,12.13
2017-08-24T16:09:17.688Z,7.73
2017-08-24T16:11:45.262Z,15.70
2017-08-24T16:14:12.810Z,8.83
2017-08-24T16:16:40.356Z,10.02
2017-08-24T16:19:07.981Z,12.97
2017-08-24T16:21:35.646Z,8.60
2017-08-24T16:24:03.181Z,9.63
2017-08-24T16:26:30.793Z,8.93
2017-08-24T16:28:58.333Z,9.97
2017-08-24T16:31:25.880Z,10.10
2017-08-24T16:33:53.471Z,12.00
2017-08-24T16:36:21.011Z,10.75
2017-08-24T16:38:48.553Z,10.13
2017-08-24T16:41:16.437Z,15.30
2017-08-24T16:43:43.985Z,12.90
2017-08-24T16:46:11.538Z,12.23
2017-08-24T16:48:40.058Z,9.40
2017-08-24T16:51:07.601Z,11.63
2017-08-24T16:53:36.101Z,10.07
2017-08-24T16:56:03.729Z,11.40
2017-08-24T16:58:31.260Z,9.57
2017-08-24T17:00:58.807Z,10.47
2017-08-24T17:03:26.381Z,8.90
2017-08-24T17:05:53.924Z,15.17
2017-08-24T17:08:21.469Z,9.77
2017-08-24T17:10:49.065Z,17.50
2017-08-24T17:13:16.618Z,17.58
2017-08-24T17:15:44.160Z,14.90
2017-08-24T17:18:11.720Z,16.23
2017-08-24T17:20:40.025Z,10.70
2017-08-24T17:23:07.565Z,10.82
2017-08-24T17:25:35.170Z,17.27
2017-08-24T17:28:03.474Z,11.73
2017-08-24T17:30:31.016Z,12.43
2017-08-24T17:32:58.669Z,14.47
2017-08-24T17:35:26.233Z,11.90
2017-08-24T17:37:53.779Z,11.70
2017-08-24T17:40:21.365Z,14.10
2017-08-24T17:42:48.914Z,15.67
2017-08-24T17:45:16.574Z,18.03
2017-08-24T17:47:44.149Z,13.77
2017-08-24T17:50:11.701Z,15.10
2017-08-24T17:52:39.249Z,13.20
2017-08-24T17:55:07.897Z,15.67
2017-08-24T17:57:35.436Z,17.40
2017-08-24T18:00:02.985Z,32.03
2017-08-24T18:02:30.656Z,17.37
2017-08-24T18:04:58.210Z,14.47
2017-08-24T18:07:25.803Z,19.63
2017-08-24T18:09:54.024Z,13.70
2017-08-24T18:12:21.573Z,16.80
2017-08-24T18:14:49.878Z,13.97
2017-08-24T18:17:17.524Z,17.33
2017-08-24T18:19:45.076Z,19.07
2017-08-24T18:22:13.555Z,14.23
2017-08-24T18:24:41.124Z,13.83
2017-08-24T18:27:08.670Z,16.23
2017-08-24T18:29:36.342Z,14.30
2017-08-24T18:32:03.961Z,13.70
2017-08-24T18:34:31.511Z,21.73
2017-08-24T18:36:59.058Z,15.73
2017-08-24T18:39:26.670Z,14.37
2017-08-24T18:41:54.222Z,19.03
2017-08-24T18:44:22.537Z,15.10
2017-08-24T18:46:51.787Z,16.80
2017-08-24T18:49:19.814Z,19.17
2017-08-24T18:51:47.361Z,14.90
2017-08-24T18:54:15.537Z,17.87
2017-08-24T18:56:43.911Z,16.60
2017-08-24T18:59:11.460Z,17.17
2017-08-24T19:01:39.829Z,24.33
2017-08-24T19:04:08.138Z,17.80
2017-08-24T19:06:35.685Z,19.53
2017-08-24T19:09:03.277Z,26.20
2017-08-24T19:11:30.818Z,12.55
2017-08-24T19:13:58.361Z,17.50
2017-08-24T19:16:25.928Z,16.12
2017-08-24T19:18:53.486Z,16.30
2017-08-24T19:21:21.036Z,8.40
2017-08-24T19:23:48.656Z,11.82
2017-08-24T19:26:16.413Z,10.83
2017-08-24T19:28:43.962Z,12.70
2017-08-24T19:31:11.545Z,12.07
2017-08-24T19:33:39.095Z,10.60
2017-08-24T19:36:06.641Z,14.03
2017-08-24T19:38:34.238Z,4.63
2017-08-24T19:41:01.778Z,5.70
2017-08-24T19:43:29.316Z,4.23
2017-08-24T19:45:56.908Z,5.90
2017-08-24T19:48:24.459Z,8.93
2017-08-24T19:50:52.006Z,4.53
2017-08-24T19:53:19.575Z,4.93
2017-08-24T19:55:47.117Z,8.97
2017-08-24T19:58:16.749Z,4.47
2017-08-24T20:00:44.320Z,5.60
2017-08-24T20:03:11.881Z,7.33
2017-08-24T20:05:39.420Z,3.80
2017-08-24T20:08:07.033Z,6.07
2017-08-24T20:10:34.585Z,4.50
2017-08-24T20:13:02.130Z,4.33
2017-08-24T20:15:30.460Z,5.47
2017-08-24T20:17:58.001Z,4.50
2017-08-24T20:20:25.629Z,3.73
2017-08-24T20:22:54.203Z,4.40
2017-08-24T20:25:21.744Z,4.27
2017-08-24T20:27:49.285Z,4.37
2017-08-24T20:30:16.904Z,4.30
2017-08-24T20:32:44.457Z,6.47
2017-08-24T20:35:12.011Z,4.50
2017-08-24T20:37:40.350Z,4.30
2017-08-24T20:40:07.890Z,3.97
2017-08-24T20:42:35.483Z,3.50
2017-08-24T20:45:03.241Z,5.23
2017-08-24T20:47:30.786Z,6.17
2017-08-24T20:49:58.436Z,4.10
2017-08-24T20:52:26.894Z,4.43
2017-08-24T20:54:54.529Z,3.95
2017-08-24T20:57:22.117Z,4.20
2017-08-24T20:59:50.037Z,6.70
2017-08-24T21:02:17.589Z,5.27
2017-08-24T21:04:45.178Z,5.37
2017-08-24T21:07:14.480Z,4.27
2017-08-24T21:09:42.090Z,3.67
2017-08-24T21:12:09.705Z,6.70
2017-08-24T21:14:37.550Z,5.63
2017-08-24T21:17:06.414Z,3.83
2017-08-24T21:19:33.957Z,4.43
2017-08-24T21:22:01.546Z,4.47
2017-08-24T21:24:29.080Z,4.43
2017-08-24T21:26:56.633Z,4.47
2017-08-24T21:29:24.221Z,4.00
2017-08-24T21:31:51.761Z,5.10
2017-08-24T21:34:19.301Z,3.93
2017-08-24T21:36:46.909Z,3.77
2017-08-24T21:39:15.517Z,3.42
2017-08-24T21:41:43.057Z,3.57
2017-08-24T21:44:10.642Z,3.83
2017-08-24T21:46:38.188Z,4.53
2017-08-24T21:49:05.725Z,3.57
2017-08-24T21:51:33.328Z,5.85
2017-08-24T21:54:00.869Z,4.17
2017-08-24T21:56:28.410Z,4.00
2017-08-24T21:58:56.066Z,3.93
2017-08-24T22:01:23.653Z,3.53
2017-08-24T22:03:51.193Z,4.17
2017-08-24T22:06:18.761Z,5.60
2017-08-24T22:08:46.301Z,6.80
2017-08-24T22:11:15.553Z,4.18
2017-08-24T22:13:43.134Z,3.63
2017-08-24T22:16:10.681Z,3.63
2017-08-24T22:18:38.220Z,4.20
2017-08-24T22:21:05.829Z,4.90
2017-08-24T22:23:33.388Z,4.37
2017-08-24T22:26:00.928Z,4.37
2017-08-24T22:28:28.509Z,5.22
2017-08-24T22:30:56.045Z,4.93
2017-08-24T22:33:23.593Z,5.43
2017-08-24T22:35:51.932Z,7.20
2017-08-24T22:38:19.470Z,9.23
2017-08-24T22:40:47.006Z,6.23
2017-08-24T22:43:15.606Z,4.45
2017-08-24T22:45:43.156Z,5.30
2017-08-24T22:48:10.697Z,4.90
2017-08-24T22:50:38.269Z,4.30
2017-08-24T22:53:12.306Z,4.70
2017-08-24T22:55:45.580Z,5.33
2017-08-24T23:01:29.380Z,4.70
2017-08-24T23:04:00.497Z,4.13
2017-08-24T23:06:28.033Z,4.63
2017-08-24T23:08:55.613Z,3.97
2017-08-24T23:11:23.161Z,5.65
2017-08-24T23:13:50.697Z,4.70
2017-08-24T23:16:19.049Z,5.07
2017-08-24T23:18:46.584Z,4.27
2017-08-24T23:21:15.564Z,5.35
2017-08-24T23:23:43.209Z,4.60
2017-08-24T23:26:10.834Z,5.13
2017-08-24T23:28:38.446Z,4.93
2017-08-24T23:31:06.072Z,5.03
2017-08-24T23:33:33.616Z,4.40
2017-08-24T23:36:01.185Z,3.60
2017-08-24T23:38:28.761Z,5.87
2017-08-24T23:40:57.062Z,4.43
2017-08-24T23:43:24.596Z,5.37
2017-08-24T23:45:52.184Z,5.87
2017-08-24T23:48:19.724Z,4.30
2017-08-24T23:50:48.034Z,4.90
2017-08-24T23:53:16.480Z,4.50
2017-08-24T23:55:44.022Z,5.20
2017-08-24T23:58:11.562Z,3.70
